sensor_id;sensor_type;location;lat;lon;timestamp;temperature;humidity
41720;DHT22;27405;53.316;-6.294;2023-07-29T00:01:44;15.50;99.90
41720;DHT22;27405;53.316;-6.294;2023-07-29T00:04:12;15.50;99.90
41720;DHT22;27405;53.316;-6.294;2023-07-29T00:06:37;15.50;99.90
41720;DHT22;27405;53.316;-6.294;2023-07-29T00:09:03;15.50;99.90
41720;DHT22;27405;53.316;-6.294;2023-07-29T00:11:29;15.50;99.90
41720;DHT22;27405;53.316;-6.294;2023-07-29T00:13:55;15.50;99.90
41720;DHT22;27405;53.316;-6.294;2023-07-29T00:16:21;15.40;99.90
41720;DHT22;27405;53.316;-6.294;2023-07-29T00:18:48;15.40;99.90
41720;DHT22;27405;53.316;-6.294;2023-07-29T00:21:14;15.40;99.90
41720;DHT22;27405;53.316;-6.294;2023-07-29T00:23:39;15.40;99.90
41720;DHT22;27405;53.316;-6.294;2023-07-29T00:26:05;15.40;99.90
41720;DHT22;27405;53.316;-6.294;2023-07-29T00:28:31;15.40;99.90
41720;DHT22;27405;53.316;-6.294;2023-07-29T00:30:56;15.40;99.90
41720;DHT22;27405;53.316;-6.294;2023-07-29T00:33:22;15.30;99.90
41720;DHT22;27405;53.316;-6.294;2023-07-29T00:35:48;15.30;99.90
41720;DHT22;27405;53.316;-6.294;2023-07-29T00:38:13;15.30;99.90
41720;DHT22;27405;53.316;-6.294;2023-07-29T00:40:39;15.30;99.90
41720;DHT22;27405;53.316;-6.294;2023-07-29T00:43:05;15.30;99.90
41720;DHT22;27405;53.316;-6.294;2023-07-29T00:45:32;15.30;99.90
41720;DHT22;27405;53.316;-6.294;2023-07-29T00:47:59;15.30;99.90
41720;DHT22;27405;53.316;-6.294;2023-07-29T00:50:25;15.20;99.90
41720;DHT22;27405;53.316;-6.294;2023-07-29T00:52:53;15.30;99.90
41720;DHT22;27405;53.316;-6.294;2023-07-29T00:55:19;15.20;99.90
41720;DHT22;27405;53.316;-6.294;2023-07-29T00:57:45;15.20;99.90
41720;DHT22;27405;53.316;-6.294;2023-07-29T01:00:14;15.20;99.90
41720;DHT22;27405;53.316;-6.294;2023-07-29T01:02:41;15.30;99.90
41720;DHT22;27405;53.316;-6.294;2023-07-29T01:05:07;15.30;99.90
41720;DHT22;27405;53.316;-6.294;2023-07-29T01:07:59;15.30;99.90
41720;DHT22;27405;53.316;-6.294;2023-07-29T01:10:46;15.30;99.90
41720;DHT22;27405;53.316;-6.294;2023-07-29T01:15:54;15.50;99.90
41720;DHT22;27405;53.316;-6.294;2023-07-29T01:18:27;15.50;99.90
41720;DHT22;27405;53.316;-6.294;2023-07-29T01:20:59;15.60;99.90
41720;DHT22;27405;53.316;-6.294;2023-07-29T01:23:31;15.60;99.90
41720;DHT22;27405;53.316;-6.294;2023-07-29T01:25:57;15.60;99.90
41720;DHT22;27405;53.316;-6.294;2023-07-29T01:28:24;15.50;99.90
41720;DHT22;27405;53.316;-6.294;2023-07-29T01:30:52;15.50;99.90
41720;DHT22;27405;53.316;-6.294;2023-07-29T01:33:34;15.50;99.90
41720;DHT22;27405;53.316;-6.294;2023-07-29T01:36:11;15.40;99.90
41720;DHT22;27405;53.316;-6.294;2023-07-29T01:38:39;15.40;99.90
41720;DHT22;27405;53.316;-6.294;2023-07-29T01:41:08;15.30;99.90
41720;DHT22;27405;53.316;-6.294;2023-07-29T01:43:34;15.30;99.90
41720;DHT22;27405;53.316;-6.294;2023-07-29T01:46:09;15.20;99.90
41720;DHT22;27405;53.316;-6.294;2023-07-29T01:48:35;15.20;99.90
41720;DHT22;27405;53.316;-6.294;2023-07-29T01:51:00;15.10;99.90
41720;DHT22;27405;53.316;-6.294;2023-07-29T01:53:26;15.10;99.90
41720;DHT22;27405;53.316;-6.294;2023-07-29T01:55:52;15.00;99.90
41720;DHT22;27405;53.316;-6.294;2023-07-29T01:58:17;15.00;99.90
41720;DHT22;27405;53.316;-6.294;2023-07-29T02:00:43;15.00;99.90
41720;DHT22;27405;53.316;-6.294;2023-07-29T02:03:08;14.90;99.90
41720;DHT22;27405;53.316;-6.294;2023-07-29T02:05:34;15.00;99.90
41720;DHT22;27405;53.316;-6.294;2023-07-29T02:08:00;14.90;99.90
41720;DHT22;27405;53.316;-6.294;2023-07-29T02:10:25;14.90;99.90
41720;DHT22;27405;53.316;-6.294;2023-07-29T02:12:51;14.90;99.90
41720;DHT22;27405;53.316;-6.294;2023-07-29T02:15:17;14.90;99.90
41720;DHT22;27405;53.316;-6.294;2023-07-29T02:17:43;14.90;99.90
41720;DHT22;27405;53.316;-6.294;2023-07-29T02:20:09;14.90;99.90
41720;DHT22;27405;53.316;-6.294;2023-07-29T02:22:36;14.80;99.90
41720;DHT22;27405;53.316;-6.294;2023-07-29T02:25:01;14.80;99.90
41720;DHT22;27405;53.316;-6.294;2023-07-29T02:27:28;14.80;99.90
41720;DHT22;27405;53.316;-6.294;2023-07-29T02:29:54;14.80;99.90
41720;DHT22;27405;53.316;-6.294;2023-07-29T02:32:20;14.80;99.90
41720;DHT22;27405;53.316;-6.294;2023-07-29T02:34:46;14.80;99.90
41720;DHT22;27405;53.316;-6.294;2023-07-29T02:37:11;14.80;99.90
41720;DHT22;27405;53.316;-6.294;2023-07-29T02:39:37;14.80;99.90
41720;DHT22;27405;53.316;-6.294;2023-07-29T02:42:03;14.80;99.90
41720;DHT22;27405;53.316;-6.294;2023-07-29T02:44:29;14.70;99.90
41720;DHT22;27405;53.316;-6.294;2023-07-29T02:46:55;14.70;99.90
41720;DHT22;27405;53.316;-6.294;2023-07-29T02:49:22;14.70;99.90
41720;DHT22;27405;53.316;-6.294;2023-07-29T02:51:48;14.70;99.90
41720;DHT22;27405;53.316;-6.294;2023-07-29T02:54:14;14.70;99.90
41720;DHT22;27405;53.316;-6.294;2023-07-29T02:56:39;14.60;99.90
41720;DHT22;27405;53.316;-6.294;2023-07-29T02:59:05;14.60;99.90
41720;DHT22;27405;53.316;-6.294;2023-07-29T03:01:31;14.60;99.90
41720;DHT22;27405;53.316;-6.294;2023-07-29T03:03:57;14.60;99.90
41720;DHT22;27405;53.316;-6.294;2023-07-29T03:06:22;14.60;99.90
41720;DHT22;27405;53.316;-6.294;2023-07-29T03:08:48;14.60;99.90
41720;DHT22;27405;53.316;-6.294;2023-07-29T03:11:15;14.60;99.90
41720;DHT22;27405;53.316;-6.294;2023-07-29T03:13:41;14.50;99.90
41720;DHT22;27405;53.316;-6.294;2023-07-29T03:16:12;14.50;99.90
41720;DHT22;27405;53.316;-6.294;2023-07-29T03:18:39;14.50;99.90
41720;DHT22;27405;53.316;-6.294;2023-07-29T03:21:05;14.60;99.90
41720;DHT22;27405;53.316;-6.294;2023-07-29T03:23:33;14.60;99.90
41720;DHT22;27405;53.316;-6.294;2023-07-29T03:26:00;14.60;99.90
41720;DHT22;27405;53.316;-6.294;2023-07-29T03:28:28;14.60;99.90
41720;DHT22;27405;53.316;-6.294;2023-07-29T03:30:55;14.60;99.90
41720;DHT22;27405;53.316;-6.294;2023-07-29T03:33:20;14.60;99.90
41720;DHT22;27405;53.316;-6.294;2023-07-29T03:35:46;14.60;99.90
41720;DHT22;27405;53.316;-6.294;2023-07-29T03:38:13;14.50;99.90
41720;DHT22;27405;53.316;-6.294;2023-07-29T03:40:39;14.50;99.90
41720;DHT22;27405;53.316;-6.294;2023-07-29T03:43:05;14.40;99.90
41720;DHT22;27405;53.316;-6.294;2023-07-29T03:45:31;14.40;99.90
41720;DHT22;27405;53.316;-6.294;2023-07-29T03:47:57;14.40;99.90
41720;DHT22;27405;53.316;-6.294;2023-07-29T03:50:23;14.40;99.90
41720;DHT22;27405;53.316;-6.294;2023-07-29T03:52:49;14.40;99.90
41720;DHT22;27405;53.316;-6.294;2023-07-29T03:55:15;14.40;99.90
41720;DHT22;27405;53.316;-6.294;2023-07-29T03:57:41;14.30;99.90
41720;DHT22;27405;53.316;-6.294;2023-07-29T04:00:07;14.30;99.90
41720;DHT22;27405;53.316;-6.294;2023-07-29T04:02:34;14.30;99.90
41720;DHT22;27405;53.316;-6.294;2023-07-29T04:05:03;14.30;99.90
41720;DHT22;27405;53.316;-6.294;2023-07-29T04:07:30;14.30;99.90
41720;DHT22;27405;53.316;-6.294;2023-07-29T04:09:56;14.30;99.90
41720;DHT22;27405;53.316;-6.294;2023-07-29T04:12:22;14.30;99.90
41720;DHT22;27405;53.316;-6.294;2023-07-29T04:14:48;14.30;99.90
41720;DHT22;27405;53.316;-6.294;2023-07-29T04:17:14;14.30;99.90
41720;DHT22;27405;53.316;-6.294;2023-07-29T04:19:40;14.30;99.90
41720;DHT22;27405;53.316;-6.294;2023-07-29T04:22:06;14.20;99.90
41720;DHT22;27405;53.316;-6.294;2023-07-29T04:24:31;14.20;99.90
41720;DHT22;27405;53.316;-6.294;2023-07-29T04:26:57;14.20;99.90
41720;DHT22;27405;53.316;-6.294;2023-07-29T04:29:23;14.20;99.90
41720;DHT22;27405;53.316;-6.294;2023-07-29T04:31:52;14.20;99.90
41720;DHT22;27405;53.316;-6.294;2023-07-29T04:34:18;14.20;99.90
41720;DHT22;27405;53.316;-6.294;2023-07-29T04:36:48;14.20;99.90
41720;DHT22;27405;53.316;-6.294;2023-07-29T04:39:14;14.20;99.90
41720;DHT22;27405;53.316;-6.294;2023-07-29T04:41:40;14.20;99.90
41720;DHT22;27405;53.316;-6.294;2023-07-29T04:44:06;14.10;99.90
41720;DHT22;27405;53.316;-6.294;2023-07-29T04:46:33;14.10;99.90
41720;DHT22;27405;53.316;-6.294;2023-07-29T04:48:58;14.10;99.90
41720;DHT22;27405;53.316;-6.294;2023-07-29T04:51:24;14.10;99.90
41720;DHT22;27405;53.316;-6.294;2023-07-29T04:53:50;14.10;99.90
41720;DHT22;27405;53.316;-6.294;2023-07-29T04:56:16;14.10;99.90
41720;DHT22;27405;53.316;-6.294;2023-07-29T04:58:41;14.10;99.90
41720;DHT22;27405;53.316;-6.294;2023-07-29T05:01:07;14.10;99.90
41720;DHT22;27405;53.316;-6.294;2023-07-29T05:03:33;14.10;99.90
41720;DHT22;27405;53.316;-6.294;2023-07-29T05:05:59;14.10;99.90
41720;DHT22;27405;53.316;-6.294;2023-07-29T05:08:28;14.10;99.90
41720;DHT22;27405;53.316;-6.294;2023-07-29T05:10:54;14.10;99.90
41720;DHT22;27405;53.316;-6.294;2023-07-29T05:13:20;14.10;99.90
41720;DHT22;27405;53.316;-6.294;2023-07-29T05:15:47;14.10;99.90
41720;DHT22;27405;53.316;-6.294;2023-07-29T05:18:14;14.10;99.90
41720;DHT22;27405;53.316;-6.294;2023-07-29T05:20:39;14.10;99.90
41720;DHT22;27405;53.316;-6.294;2023-07-29T05:23:05;14.20;99.90
41720;DHT22;27405;53.316;-6.294;2023-07-29T05:25:31;14.20;99.90
41720;DHT22;27405;53.316;-6.294;2023-07-29T05:27:56;14.20;99.90
41720;DHT22;27405;53.316;-6.294;2023-07-29T05:30:23;14.20;99.90
41720;DHT22;27405;53.316;-6.294;2023-07-29T05:32:48;14.20;99.90
41720;DHT22;27405;53.316;-6.294;2023-07-29T05:35:14;14.30;99.90
41720;DHT22;27405;53.316;-6.294;2023-07-29T05:37:40;14.30;99.90
41720;DHT22;27405;53.316;-6.294;2023-07-29T05:40:07;14.30;99.90
41720;DHT22;27405;53.316;-6.294;2023-07-29T05:42:34;14.30;99.90
41720;DHT22;27405;53.316;-6.294;2023-07-29T05:44:59;14.30;99.90
41720;DHT22;27405;53.316;-6.294;2023-07-29T05:47:25;14.30;99.90
41720;DHT22;27405;53.316;-6.294;2023-07-29T05:49:51;14.40;99.90
41720;DHT22;27405;53.316;-6.294;2023-07-29T05:52:17;14.30;99.90
41720;DHT22;27405;53.316;-6.294;2023-07-29T05:54:43;14.40;99.90
41720;DHT22;27405;53.316;-6.294;2023-07-29T05:57:12;14.40;99.90
41720;DHT22;27405;53.316;-6.294;2023-07-29T05:59:38;14.40;99.90
41720;DHT22;27405;53.316;-6.294;2023-07-29T06:02:04;14.50;99.90
41720;DHT22;27405;53.316;-6.294;2023-07-29T06:04:30;14.50;99.90
41720;DHT22;27405;53.316;-6.294;2023-07-29T06:06:56;14.50;99.90
41720;DHT22;27405;53.316;-6.294;2023-07-29T06:09:22;14.50;99.90
41720;DHT22;27405;53.316;-6.294;2023-07-29T06:11:48;14.60;99.90
41720;DHT22;27405;53.316;-6.294;2023-07-29T06:14:14;14.60;99.90
41720;DHT22;27405;53.316;-6.294;2023-07-29T06:16:39;14.70;99.90
41720;DHT22;27405;53.316;-6.294;2023-07-29T06:19:05;14.70;99.90
41720;DHT22;27405;53.316;-6.294;2023-07-29T06:21:31;14.70;99.90
41720;DHT22;27405;53.316;-6.294;2023-07-29T06:23:56;14.70;99.90
41720;DHT22;27405;53.316;-6.294;2023-07-29T06:26:22;14.80;99.90
41720;DHT22;27405;53.316;-6.294;2023-07-29T06:28:48;14.80;99.90
41720;DHT22;27405;53.316;-6.294;2023-07-29T06:31:13;14.80;99.90
41720;DHT22;27405;53.316;-6.294;2023-07-29T06:33:40;14.90;99.90
41720;DHT22;27405;53.316;-6.294;2023-07-29T06:36:05;14.90;99.90
41720;DHT22;27405;53.316;-6.294;2023-07-29T06:38:31;14.90;99.90
41720;DHT22;27405;53.316;-6.294;2023-07-29T06:40:57;14.90;99.90
41720;DHT22;27405;53.316;-6.294;2023-07-29T06:43:22;15.00;99.90
41720;DHT22;27405;53.316;-6.294;2023-07-29T06:45:48;15.00;99.90
41720;DHT22;27405;53.316;-6.294;2023-07-29T06:48:14;15.00;99.90
41720;DHT22;27405;53.316;-6.294;2023-07-29T06:50:39;15.00;99.90
41720;DHT22;27405;53.316;-6.294;2023-07-29T06:53:06;15.10;99.90
41720;DHT22;27405;53.316;-6.294;2023-07-29T06:55:31;15.10;99.90
41720;DHT22;27405;53.316;-6.294;2023-07-29T06:57:57;15.10;99.90
41720;DHT22;27405;53.316;-6.294;2023-07-29T07:00:23;15.10;99.90
41720;DHT22;27405;53.316;-6.294;2023-07-29T07:02:48;15.20;99.90
41720;DHT22;27405;53.316;-6.294;2023-07-29T07:05:14;15.20;99.90
41720;DHT22;27405;53.316;-6.294;2023-07-29T07:07:40;15.20;99.90
41720;DHT22;27405;53.316;-6.294;2023-07-29T07:10:06;15.20;99.90
41720;DHT22;27405;53.316;-6.294;2023-07-29T07:12:32;15.30;99.90
41720;DHT22;27405;53.316;-6.294;2023-07-29T07:14:58;15.30;99.90
41720;DHT22;27405;53.316;-6.294;2023-07-29T07:17:23;15.30;99.90
41720;DHT22;27405;53.316;-6.294;2023-07-29T07:19:49;15.30;99.90
41720;DHT22;27405;53.316;-6.294;2023-07-29T07:22:16;15.30;99.90
41720;DHT22;27405;53.316;-6.294;2023-07-29T07:24:41;15.40;99.90
41720;DHT22;27405;53.316;-6.294;2023-07-29T07:27:07;15.40;99.90
41720;DHT22;27405;53.316;-6.294;2023-07-29T07:29:33;15.50;99.90
41720;DHT22;27405;53.316;-6.294;2023-07-29T07:31:58;15.50;99.90
41720;DHT22;27405;53.316;-6.294;2023-07-29T07:34:24;15.60;99.90
41720;DHT22;27405;53.316;-6.294;2023-07-29T07:36:50;15.60;99.90
41720;DHT22;27405;53.316;-6.294;2023-07-29T07:39:15;15.60;99.90
41720;DHT22;27405;53.316;-6.294;2023-07-29T07:41:42;15.70;99.90
41720;DHT22;27405;53.316;-6.294;2023-07-29T07:44:08;15.70;99.90
41720;DHT22;27405;53.316;-6.294;2023-07-29T07:46:33;15.70;99.90
41720;DHT22;27405;53.316;-6.294;2023-07-29T07:48:59;15.80;99.90
41720;DHT22;27405;53.316;-6.294;2023-07-29T07:51:25;15.90;99.90
41720;DHT22;27405;53.316;-6.294;2023-07-29T07:53:50;16.00;99.90
41720;DHT22;27405;53.316;-6.294;2023-07-29T07:56:16;16.10;99.90
41720;DHT22;27405;53.316;-6.294;2023-07-29T07:58:41;16.10;99.90
41720;DHT22;27405;53.316;-6.294;2023-07-29T08:01:08;16.30;99.90
41720;DHT22;27405;53.316;-6.294;2023-07-29T08:03:35;16.30;99.90
41720;DHT22;27405;53.316;-6.294;2023-07-29T08:06:01;16.40;99.90
41720;DHT22;27405;53.316;-6.294;2023-07-29T08:08:28;16.30;99.90
41720;DHT22;27405;53.316;-6.294;2023-07-29T08:10:54;16.30;99.90
41720;DHT22;27405;53.316;-6.294;2023-07-29T08:13:21;16.30;99.90
41720;DHT22;27405;53.316;-6.294;2023-07-29T08:15:48;16.20;99.90
41720;DHT22;27405;53.316;-6.294;2023-07-29T08:18:14;16.20;99.90
41720;DHT22;27405;53.316;-6.294;2023-07-29T08:20:39;16.20;99.90
41720;DHT22;27405;53.316;-6.294;2023-07-29T08:23:05;16.20;99.90
41720;DHT22;27405;53.316;-6.294;2023-07-29T08:25:31;16.20;99.90
41720;DHT22;27405;53.316;-6.294;2023-07-29T08:27:56;16.20;99.90
41720;DHT22;27405;53.316;-6.294;2023-07-29T08:30:22;16.30;99.90
41720;DHT22;27405;53.316;-6.294;2023-07-29T08:32:48;16.30;99.90
41720;DHT22;27405;53.316;-6.294;2023-07-29T08:35:14;16.30;99.90
41720;DHT22;27405;53.316;-6.294;2023-07-29T08:37:39;16.40;99.90
41720;DHT22;27405;53.316;-6.294;2023-07-29T08:40:05;16.40;99.90
41720;DHT22;27405;53.316;-6.294;2023-07-29T08:42:32;16.50;99.90
41720;DHT22;27405;53.316;-6.294;2023-07-29T08:45:06;16.60;99.90
41720;DHT22;27405;53.316;-6.294;2023-07-29T08:47:33;16.70;99.90
41720;DHT22;27405;53.316;-6.294;2023-07-29T08:50:01;16.90;99.90
41720;DHT22;27405;53.316;-6.294;2023-07-29T08:52:28;17.10;99.90
41720;DHT22;27405;53.316;-6.294;2023-07-29T08:54:55;17.30;99.90
41720;DHT22;27405;53.316;-6.294;2023-07-29T08:57:21;17.50;99.90
41720;DHT22;27405;53.316;-6.294;2023-07-29T08:59:47;17.60;99.90
41720;DHT22;27405;53.316;-6.294;2023-07-29T09:02:13;17.80;99.90
41720;DHT22;27405;53.316;-6.294;2023-07-29T09:04:39;17.90;99.90
41720;DHT22;27405;53.316;-6.294;2023-07-29T09:07:05;17.80;99.90
41720;DHT22;27405;53.316;-6.294;2023-07-29T09:09:32;17.80;99.80
41720;DHT22;27405;53.316;-6.294;2023-07-29T09:11:57;17.80;99.80
41720;DHT22;27405;53.316;-6.294;2023-07-29T09:14:24;17.80;99.90
41720;DHT22;27405;53.316;-6.294;2023-07-29T09:16:49;17.80;99.80
41720;DHT22;27405;53.316;-6.294;2023-07-29T09:19:15;17.90;99.80
41720;DHT22;27405;53.316;-6.294;2023-07-29T09:21:42;18.00;99.70
41720;DHT22;27405;53.316;-6.294;2023-07-29T09:24:09;18.20;99.60
41720;DHT22;27405;53.316;-6.294;2023-07-29T09:26:35;18.30;99.20
41720;DHT22;27405;53.316;-6.294;2023-07-29T09:29:01;18.30;99.10
41720;DHT22;27405;53.316;-6.294;2023-07-29T09:31:28;18.40;99.00
41720;DHT22;27405;53.316;-6.294;2023-07-29T09:33:59;18.50;98.80
41720;DHT22;27405;53.316;-6.294;2023-07-29T09:36:26;18.40;98.70
41720;DHT22;27405;53.316;-6.294;2023-07-29T09:38:55;18.60;98.70
41720;DHT22;27405;53.316;-6.294;2023-07-29T09:41:26;18.70;98.50
41720;DHT22;27405;53.316;-6.294;2023-07-29T09:43:57;18.80;98.50
41720;DHT22;27405;53.316;-6.294;2023-07-29T09:46:33;18.90;98.10
41720;DHT22;27405;53.316;-6.294;2023-07-29T09:49:00;18.90;97.80
41720;DHT22;27405;53.316;-6.294;2023-07-29T09:51:26;18.90;97.90
41720;DHT22;27405;53.316;-6.294;2023-07-29T09:53:52;18.80;97.80
41720;DHT22;27405;53.316;-6.294;2023-07-29T09:56:26;18.80;97.90
41720;DHT22;27405;53.316;-6.294;2023-07-29T09:58:52;18.80;98.00
41720;DHT22;27405;53.316;-6.294;2023-07-29T10:01:18;18.80;98.10
41720;DHT22;27405;53.316;-6.294;2023-07-29T10:03:47;18.90;98.00
41720;DHT22;27405;53.316;-6.294;2023-07-29T10:06:15;18.90;98.10
41720;DHT22;27405;53.316;-6.294;2023-07-29T10:08:42;19.00;98.20
41720;DHT22;27405;53.316;-6.294;2023-07-29T10:11:10;19.00;98.00
41720;DHT22;27405;53.316;-6.294;2023-07-29T10:13:36;18.90;97.90
41720;DHT22;27405;53.316;-6.294;2023-07-29T10:16:03;18.90;97.80
41720;DHT22;27405;53.316;-6.294;2023-07-29T10:18:31;18.90;97.60
41720;DHT22;27405;53.316;-6.294;2023-07-29T10:20:58;19.00;97.70
41720;DHT22;27405;53.316;-6.294;2023-07-29T10:23:25;19.20;97.50
41720;DHT22;27405;53.316;-6.294;2023-07-29T10:26:05;19.20;97.30
41720;DHT22;27405;53.316;-6.294;2023-07-29T10:28:32;19.20;97.30
41720;DHT22;27405;53.316;-6.294;2023-07-29T10:30:59;19.30;97.30
41720;DHT22;27405;53.316;-6.294;2023-07-29T10:33:25;19.30;97.40
41720;DHT22;27405;53.316;-6.294;2023-07-29T10:35:53;19.40;97.40
41720;DHT22;27405;53.316;-6.294;2023-07-29T10:38:22;19.50;97.30
41720;DHT22;27405;53.316;-6.294;2023-07-29T10:40:52;19.60;97.00
41720;DHT22;27405;53.316;-6.294;2023-07-29T10:45:55;19.40;96.80
41720;DHT22;27405;53.316;-6.294;2023-07-29T10:51:25;19.40;97.30
41720;DHT22;27405;53.316;-6.294;2023-07-29T10:53:57;19.70;96.90
41720;DHT22;27405;53.316;-6.294;2023-07-29T10:56:34;19.70;96.50
41720;DHT22;27405;53.316;-6.294;2023-07-29T11:01:41;19.70;96.20
41720;DHT22;27405;53.316;-6.294;2023-07-29T11:17:39;17.50;99.90
41720;DHT22;27405;53.316;-6.294;2023-07-29T11:20:06;17.10;99.90
41720;DHT22;27405;53.316;-6.294;2023-07-29T11:22:33;16.70;99.90
41720;DHT22;27405;53.316;-6.294;2023-07-29T11:24:59;16.40;99.90
41720;DHT22;27405;53.316;-6.294;2023-07-29T11:27:24;16.20;99.90
41720;DHT22;27405;53.316;-6.294;2023-07-29T11:29:50;16.10;99.90
41720;DHT22;27405;53.316;-6.294;2023-07-29T11:32:16;16.10;99.90
41720;DHT22;27405;53.316;-6.294;2023-07-29T11:34:42;16.20;99.90
41720;DHT22;27405;53.316;-6.294;2023-07-29T11:37:11;16.30;99.90
41720;DHT22;27405;53.316;-6.294;2023-07-29T11:39:44;16.40;99.90
41720;DHT22;27405;53.316;-6.294;2023-07-29T11:42:14;16.40;99.90
41720;DHT22;27405;53.316;-6.294;2023-07-29T11:44:40;16.50;99.90
41720;DHT22;27405;53.316;-6.294;2023-07-29T11:47:11;16.50;99.90
41720;DHT22;27405;53.316;-6.294;2023-07-29T11:49:38;16.50;99.90
41720;DHT22;27405;53.316;-6.294;2023-07-29T11:52:10;16.60;99.90
41720;DHT22;27405;53.316;-6.294;2023-07-29T11:54:36;16.70;99.90
41720;DHT22;27405;53.316;-6.294;2023-07-29T11:57:07;16.90;99.90
41720;DHT22;27405;53.316;-6.294;2023-07-29T11:59:35;17.10;99.90
41720;DHT22;27405;53.316;-6.294;2023-07-29T12:02:01;17.20;99.90
41720;DHT22;27405;53.316;-6.294;2023-07-29T12:04:30;17.40;99.90
41720;DHT22;27405;53.316;-6.294;2023-07-29T12:06:56;17.50;99.90
41720;DHT22;27405;53.316;-6.294;2023-07-29T12:09:22;17.70;99.90
41720;DHT22;27405;53.316;-6.294;2023-07-29T12:11:48;17.80;99.90
41720;DHT22;27405;53.316;-6.294;2023-07-29T12:14:16;18.00;99.90
41720;DHT22;27405;53.316;-6.294;2023-07-29T12:16:48;18.10;99.90
41720;DHT22;27405;53.316;-6.294;2023-07-29T12:19:14;18.20;99.90
41720;DHT22;27405;53.316;-6.294;2023-07-29T12:21:44;18.30;99.90
41720;DHT22;27405;53.316;-6.294;2023-07-29T12:24:13;18.40;99.90
41720;DHT22;27405;53.316;-6.294;2023-07-29T12:26:40;18.60;99.90
41720;DHT22;27405;53.316;-6.294;2023-07-29T12:29:17;18.80;99.90
41720;DHT22;27405;53.316;-6.294;2023-07-29T12:31:45;19.10;99.90
41720;DHT22;27405;53.316;-6.294;2023-07-29T12:34:18;19.50;99.90
41720;DHT22;27405;53.316;-6.294;2023-07-29T12:36:48;19.80;99.90
41720;DHT22;27405;53.316;-6.294;2023-07-29T12:41:42;20.40;99.90
41720;DHT22;27405;53.316;-6.294;2023-07-29T12:44:08;20.50;99.90
41720;DHT22;27405;53.316;-6.294;2023-07-29T12:46:34;20.60;99.90
41720;DHT22;27405;53.316;-6.294;2023-07-29T12:48:59;20.80;99.40
41720;DHT22;27405;53.316;-6.294;2023-07-29T12:51:25;20.80;98.80
41720;DHT22;27405;53.316;-6.294;2023-07-29T12:53:51;20.60;98.30
41720;DHT22;27405;53.316;-6.294;2023-07-29T12:56:16;20.50;97.80
41720;DHT22;27405;53.316;-6.294;2023-07-29T12:58:42;20.30;97.30
41720;DHT22;27405;53.316;-6.294;2023-07-29T13:01:07;20.10;97.00
41720;DHT22;27405;53.316;-6.294;2023-07-29T13:03:34;20.00;97.50
41720;DHT22;27405;53.316;-6.294;2023-07-29T13:06:00;19.70;98.20
41720;DHT22;27405;53.316;-6.294;2023-07-29T13:08:25;19.60;98.80
41720;DHT22;27405;53.316;-6.294;2023-07-29T13:10:51;19.50;98.90
41720;DHT22;27405;53.316;-6.294;2023-07-29T13:13:17;19.40;99.50
41720;DHT22;27405;53.316;-6.294;2023-07-29T13:15:43;19.10;99.90
41720;DHT22;27405;53.316;-6.294;2023-07-29T13:18:09;18.70;99.90
41720;DHT22;27405;53.316;-6.294;2023-07-29T13:20:34;18.10;99.90
41720;DHT22;27405;53.316;-6.294;2023-07-29T13:23:00;17.80;99.90
41720;DHT22;27405;53.316;-6.294;2023-07-29T13:25:26;17.60;99.90
41720;DHT22;27405;53.316;-6.294;2023-07-29T13:27:51;17.40;99.90
41720;DHT22;27405;53.316;-6.294;2023-07-29T13:30:17;17.30;99.90
41720;DHT22;27405;53.316;-6.294;2023-07-29T13:32:43;17.40;99.90
41720;DHT22;27405;53.316;-6.294;2023-07-29T13:35:08;17.50;99.90
41720;DHT22;27405;53.316;-6.294;2023-07-29T13:37:34;17.70;99.90
41720;DHT22;27405;53.316;-6.294;2023-07-29T13:39:59;18.00;99.90
41720;DHT22;27405;53.316;-6.294;2023-07-29T13:42:25;18.20;99.90
41720;DHT22;27405;53.316;-6.294;2023-07-29T13:44:51;18.30;99.90
41720;DHT22;27405;53.316;-6.294;2023-07-29T13:47:17;18.50;99.90
41720;DHT22;27405;53.316;-6.294;2023-07-29T13:49:42;18.50;99.90
41720;DHT22;27405;53.316;-6.294;2023-07-29T13:52:08;18.70;99.90
41720;DHT22;27405;53.316;-6.294;2023-07-29T13:54:34;18.90;99.90
41720;DHT22;27405;53.316;-6.294;2023-07-29T13:56:59;19.10;99.90
41720;DHT22;27405;53.316;-6.294;2023-07-29T13:59:25;19.30;99.90
41720;DHT22;27405;53.316;-6.294;2023-07-29T14:01:51;19.40;99.90
41720;DHT22;27405;53.316;-6.294;2023-07-29T14:04:16;19.40;99.90
41720;DHT22;27405;53.316;-6.294;2023-07-29T14:06:42;19.40;99.90
41720;DHT22;27405;53.316;-6.294;2023-07-29T14:09:08;19.50;99.90
41720;DHT22;27405;53.316;-6.294;2023-07-29T14:11:34;19.60;99.90
41720;DHT22;27405;53.316;-6.294;2023-07-29T14:13:59;19.70;99.90
41720;DHT22;27405;53.316;-6.294;2023-07-29T14:16:25;20.00;99.90
41720;DHT22;27405;53.316;-6.294;2023-07-29T14:18:51;20.10;99.40
41720;DHT22;27405;53.316;-6.294;2023-07-29T14:21:16;20.20;99.20
41720;DHT22;27405;53.316;-6.294;2023-07-29T14:23:42;20.50;98.70
41720;DHT22;27405;53.316;-6.294;2023-07-29T14:26:08;20.90;98.30
41720;DHT22;27405;53.316;-6.294;2023-07-29T14:28:36;21.10;97.20
41720;DHT22;27405;53.316;-6.294;2023-07-29T14:31:01;21.30;96.70
41720;DHT22;27405;53.316;-6.294;2023-07-29T14:33:27;21.30;95.90
41720;DHT22;27405;53.316;-6.294;2023-07-29T14:35:53;21.20;95.70
41720;DHT22;27405;53.316;-6.294;2023-07-29T14:38:19;21.30;95.60
41720;DHT22;27405;53.316;-6.294;2023-07-29T14:40:47;21.50;95.50
41720;DHT22;27405;53.316;-6.294;2023-07-29T14:43:13;21.70;95.00
41720;DHT22;27405;53.316;-6.294;2023-07-29T14:45:39;22.00;94.40
41720;DHT22;27405;53.316;-6.294;2023-07-29T14:48:05;22.10;93.80
41720;DHT22;27405;53.316;-6.294;2023-07-29T14:50:31;22.30;93.40
41720;DHT22;27405;53.316;-6.294;2023-07-29T14:52:56;22.30;93.10
41720;DHT22;27405;53.316;-6.294;2023-07-29T14:55:22;22.20;92.70
41720;DHT22;27405;53.316;-6.294;2023-07-29T14:57:48;21.90;92.60
41720;DHT22;27405;53.316;-6.294;2023-07-29T15:00:13;21.80;92.40
41720;DHT22;27405;53.316;-6.294;2023-07-29T15:02:41;21.70;92.50
41720;DHT22;27405;53.316;-6.294;2023-07-29T15:05:07;21.70;92.20
41720;DHT22;27405;53.316;-6.294;2023-07-29T15:07:33;21.50;92.30
41720;DHT22;27405;53.316;-6.294;2023-07-29T15:09:58;21.40;92.30
41720;DHT22;27405;53.316;-6.294;2023-07-29T15:12:24;21.30;92.40
41720;DHT22;27405;53.316;-6.294;2023-07-29T15:14:50;21.20;92.70
41720;DHT22;27405;53.316;-6.294;2023-07-29T15:17:16;21.40;92.50
41720;DHT22;27405;53.316;-6.294;2023-07-29T15:19:42;21.50;91.80
41720;DHT22;27405;53.316;-6.294;2023-07-29T15:22:07;21.60;91.50
41720;DHT22;27405;53.316;-6.294;2023-07-29T15:24:33;21.50;91.00
41720;DHT22;27405;53.316;-6.294;2023-07-29T15:26:59;21.30;90.70
41720;DHT22;27405;53.316;-6.294;2023-07-29T15:29:24;21.20;90.80
41720;DHT22;27405;53.316;-6.294;2023-07-29T15:31:50;21.10;91.10
41720;DHT22;27405;53.316;-6.294;2023-07-29T15:34:16;21.40;91.90
41720;DHT22;27405;53.316;-6.294;2023-07-29T15:36:41;21.70;91.20
41720;DHT22;27405;53.316;-6.294;2023-07-29T15:39:07;21.60;90.80